sensor_id;sensor_type;location;lat;lon;timestamp;pressure;altitude;pressure_sealevel;temperature;humidity
61119;BME280;51448;51.660;5.824;2023-01-28T00:01:41;102789.38;;;3.10;91.73
61119;BME280;51448;51.660;5.824;2023-01-28T00:04:09;102793.66;;;3.08;92.09
61119;BME280;51448;51.660;5.824;2023-01-28T00:06:37;102794.41;;;3.05;90.73
61119;BME280;51448;51.660;5.824;2023-01-28T00:09:06;102793.38;;;3.00;91.03
61119;BME280;51448;51.660;5.824;2023-01-28T00:11:33;102789.00;;;2.99;91.31
61119;BME280;51448;51.660;5.824;2023-01-28T00:14:01;102787.34;;;3.01;91.39
61119;BME280;51448;51.660;5.824;2023-01-28T00:16:31;102802.19;;;3.04;91.00
61119;BME280;51448;51.660;5.824;2023-01-28T00:18:58;102790.06;;;3.04;91.17
61119;BME280;51448;51.660;5.824;2023-01-28T00:21:26;102806.47;;;3.03;91.14
61119;BME280;51448;51.660;5.824;2023-01-28T00:23:55;102803.88;;;3.03;90.94
61119;BME280;51448;51.660;5.824;2023-01-28T00:26:23;102801.19;;;3.00;90.87
61119;BME280;51448;51.660;5.824;2023-01-28T00:28:52;102796.75;;;2.97;90.68
61119;BME280;51448;51.660;5.824;2023-01-28T00:31:22;102797.53;;;2.95;90.10
61119;BME280;51448;51.660;5.824;2023-01-28T00:33:54;102799.19;;;2.93;90.10
61119;BME280;51448;51.660;5.824;2023-01-28T00:36:24;102796.56;;;2.91;89.66
61119;BME280;51448;51.660;5.824;2023-01-28T00:38:57;102799.16;;;2.91;89.90
61119;BME280;51448;51.660;5.824;2023-01-28T00:41:27;102802.50;;;2.89;89.65
61119;BME280;51448;51.660;5.824;2023-01-28T00:43:58;102812.88;;;2.87;89.71
61119;BME280;51448;51.660;5.824;2023-01-28T00:46:25;102806.75;;;2.87;90.14
61119;BME280;51448;51.660;5.824;2023-01-28T00:48:54;102803.34;;;2.88;89.41
61119;BME280;51448;51.660;5.824;2023-01-28T00:51:22;102812.81;;;2.86;89.45
61119;BME280;51448;51.660;5.824;2023-01-28T00:53:49;102817.13;;;2.85;89.41
61119;BME280;51448;51.660;5.824;2023-01-28T00:56:17;102808.50;;;2.86;89.39
61119;BME280;51448;51.660;5.824;2023-01-28T00:58:46;102829.22;;;2.85;89.19
61119;BME280;51448;51.660;5.824;2023-01-28T01:01:15;102824.03;;;2.85;89.11
61119;BME280;51448;51.660;5.824;2023-01-28T01:03:46;102827.41;;;2.82;88.54
61119;BME280;51448;51.660;5.824;2023-01-28T01:06:22;102817.06;;;2.84;88.04
61119;BME280;51448;51.660;5.824;2023-01-28T01:08:51;102822.13;;;2.80;88.19
61119;BME280;51448;51.660;5.824;2023-01-28T01:11:18;102809.06;;;2.77;88.23
61119;BME280;51448;51.660;5.824;2023-01-28T01:13:51;102816.00;;;2.78;88.06
61119;BME280;51448;51.660;5.824;2023-01-28T01:16:24;102808.91;;;2.73;87.86
61119;BME280;51448;51.660;5.824;2023-01-28T01:18:54;102816.69;;;2.73;87.46
61119;BME280;51448;51.660;5.824;2023-01-28T01:21:25;102812.25;;;2.70;87.58
61119;BME280;51448;51.660;5.824;2023-01-28T01:23:54;102809.66;;;2.70;88.06
61119;BME280;51448;51.660;5.824;2023-01-28T01:26:22;102822.69;;;2.72;87.46
61119;BME280;51448;51.660;5.824;2023-01-28T01:28:51;102807.03;;;2.70;87.72
61119;BME280;51448;51.660;5.824;2023-01-28T01:31:20;102812.31;;;2.72;87.73
61119;BME280;51448;51.660;5.824;2023-01-28T01:33:50;102810.59;;;2.72;87.31
61119;BME280;51448;51.660;5.824;2023-01-28T01:36:19;102808.84;;;2.71;87.01
61119;BME280;51448;51.660;5.824;2023-01-28T01:38:52;102812.25;;;2.70;87.62
61119;BME280;51448;51.660;5.824;2023-01-28T01:41:29;102813.19;;;2.72;87.29
61119;BME280;51448;51.660;5.824;2023-01-28T01:44:03;102820.97;;;2.72;88.14
61119;BME280;51448;51.660;5.824;2023-01-28T01:46:40;102814.91;;;2.72;88.14
61119;BME280;51448;51.660;5.824;2023-01-28T01:49:20;102825.22;;;2.70;87.99
61119;BME280;51448;51.660;5.824;2023-01-28T01:52:01;102824.44;;;2.71;87.77
61119;BME280;51448;51.660;5.824;2023-01-28T01:54:34;102820.88;;;2.69;87.44
61119;BME280;51448;51.660;5.824;2023-01-28T01:57:06;102827.84;;;2.70;87.44
61119;BME280;51448;51.660;5.824;2023-01-28T01:59:41;102823.56;;;2.72;86.82
61119;BME280;51448;51.660;5.824;2023-01-28T02:02:11;102824.44;;;2.71;87.21
61119;BME280;51448;51.660;5.824;2023-01-28T02:04:41;102820.03;;;2.70;87.39
61119;BME280;51448;51.660;5.824;2023-01-28T02:07:16;102829.50;;;2.68;87.69
61119;BME280;51448;51.660;5.824;2023-01-28T02:09:45;102813.88;;;2.67;86.95
61119;BME280;51448;51.660;5.824;2023-01-28T02:12:18;102827.75;;;2.67;87.39
61119;BME280;51448;51.660;5.824;2023-01-28T02:15:16;102827.75;;;2.67;87.54
61119;BME280;51448;51.660;5.824;2023-01-28T02:17:46;102826.81;;;2.65;87.74
61119;BME280;51448;51.660;5.824;2023-01-28T02:27:03;102832.72;;;2.61;87.02
61119;BME280;51448;51.660;5.824;2023-01-28T02:30:15;102824.06;;;2.62;86.94
61119;BME280;51448;51.660;5.824;2023-01-28T02:32:52;102820.59;;;2.61;87.11
61119;BME280;51448;51.660;5.824;2023-01-28T02:35:41;102812.88;;;2.63;87.04
61119;BME280;51448;51.660;5.824;2023-01-28T02:41:04;102820.75;;;2.66;87.71
61119;BME280;51448;51.660;5.824;2023-01-28T02:43:39;102828.63;;;2.68;87.86
61119;BME280;51448;51.660;5.824;2023-01-28T02:55:39;102825.84;;;2.63;86.42
61119;BME280;51448;51.660;5.824;2023-01-28T03:00:56;102825.72;;;2.60;86.70
61119;BME280;51448;51.660;5.824;2023-01-28T03:06:20;102823.19;;;2.61;86.15
61119;BME280;51448;51.660;5.824;2023-01-28T03:08:58;102831.94;;;2.64;86.40
61119;BME280;51448;51.660;5.824;2023-01-28T03:12:02;102824.13;;;2.64;85.78
61119;BME280;51448;51.660;5.824;2023-01-28T03:14:55;102833.53;;;2.60;86.03
61119;BME280;51448;51.660;5.824;2023-01-28T03:17:49;102836.91;;;2.57;86.32
61119;BME280;51448;51.660;5.824;2023-01-28T03:24:13;102828.09;;;2.54;86.95
61119;BME280;51448;51.660;5.824;2023-01-28T03:27:18;102833.25;;;2.52;87.28
61119;BME280;51448;51.660;5.824;2023-01-28T03:30:18;102828.06;;;2.52;87.24
61119;BME280;51448;51.660;5.824;2023-01-28T03:33:14;102827.16;;;2.52;87.62
61119;BME280;51448;51.660;5.824;2023-01-28T03:36:01;102832.41;;;2.53;87.67
61119;BME280;51448;51.660;5.824;2023-01-28T03:38:48;102837.56;;;2.52;87.61
61119;BME280;51448;51.660;5.824;2023-01-28T03:41:21;102831.53;;;2.53;87.89
61119;BME280;51448;51.660;5.824;2023-01-28T03:43:53;102840.16;;;2.52;88.03
61119;BME280;51448;51.660;5.824;2023-01-28T03:46:22;102831.59;;;2.54;87.60
61119;BME280;51448;51.660;5.824;2023-01-28T03:48:49;102828.88;;;2.51;87.56
61119;BME280;51448;51.660;5.824;2023-01-28T03:51:17;102827.88;;;2.48;87.16
61119;BME280;51448;51.660;5.824;2023-01-28T03:53:45;102834.72;;;2.46;87.09
61119;BME280;51448;51.660;5.824;2023-01-28T03:56:12;102832.97;;;2.45;87.21
61119;BME280;51448;51.660;5.824;2023-01-28T03:58:44;102836.22;;;2.39;87.35
61119;BME280;51448;51.660;5.824;2023-01-28T04:01:23;102834.47;;;2.38;86.17
61119;BME280;51448;51.660;5.824;2023-01-28T04:03:52;102843.06;;;2.37;85.59
61119;BME280;51448;51.660;5.824;2023-01-28T04:06:25;102852.50;;;2.35;85.26
61119;BME280;51448;51.660;5.824;2023-01-28T04:09:15;102858.53;;;2.34;85.10
61119;BME280;51448;51.660;5.824;2023-01-28T04:11:54;102856.75;;;2.33;84.60
61119;BME280;51448;51.660;5.824;2023-01-28T04:14:28;102861.94;;;2.33;83.94
61119;BME280;51448;51.660;5.824;2023-01-28T04:17:03;102862.72;;;2.30;83.74
61119;BME280;51448;51.660;5.824;2023-01-28T04:19:35;102864.38;;;2.28;84.32
61119;BME280;51448;51.660;5.824;2023-01-28T04:22:09;102864.44;;;2.30;84.69
61119;BME280;51448;51.660;5.824;2023-01-28T04:24:39;102854.94;;;2.30;84.81
61119;BME280;51448;51.660;5.824;2023-01-28T04:27:08;102856.69;;;2.31;85.00
61119;BME280;51448;51.660;5.824;2023-01-28T04:29:35;102857.63;;;2.33;85.21
61119;BME280;51448;51.660;5.824;2023-01-28T04:32:26;102857.63;;;2.33;85.20
61119;BME280;51448;51.660;5.824;2023-01-28T04:35:08;102847.25;;;2.33;85.50
61119;BME280;51448;51.660;5.824;2023-01-28T04:38:00;102849.91;;;2.35;85.32
61119;BME280;51448;51.660;5.824;2023-01-28T04:40:51;102843.94;;;2.37;85.07
61119;BME280;51448;51.660;5.824;2023-01-28T04:43:25;102840.47;;;2.37;84.91
61119;BME280;51448;51.660;5.824;2023-01-28T04:46:08;102849.97;;;2.36;84.37
61119;BME280;51448;51.660;5.824;2023-01-28T04:48:42;102856.91;;;2.36;84.26
61119;BME280;51448;51.660;5.824;2023-01-28T04:51:28;102853.28;;;2.32;84.13
61119;BME280;51448;51.660;5.824;2023-01-28T04:54:11;102858.41;;;2.31;84.25
61119;BME280;51448;51.660;5.824;2023-01-28T04:56:40;102861.88;;;2.31;84.14
61119;BME280;51448;51.660;5.824;2023-01-28T04:59:08;102867.91;;;2.30;84.32
61119;BME280;51448;51.660;5.824;2023-01-28T05:01:37;102866.13;;;2.29;84.66
61119;BME280;51448;51.660;5.824;2023-01-28T05:04:05;102862.72;;;2.30;85.08
61119;BME280;51448;51.660;5.824;2023-01-28T05:06:37;102866.97;;;2.28;85.14
61119;BME280;51448;51.660;5.824;2023-01-28T05:09:09;102861.72;;;2.27;85.57
61119;BME280;51448;51.660;5.824;2023-01-28T05:11:36;102862.59;;;2.27;85.80
61119;BME280;51448;51.660;5.824;2023-01-28T05:14:06;102860.91;;;2.28;86.06
61119;BME280;51448;51.660;5.824;2023-01-28T05:16:54;102859.06;;;2.25;86.03
61119;BME280;51448;51.660;5.824;2023-01-28T05:19:22;102863.44;;;2.26;86.17
61119;BME280;51448;51.660;5.824;2023-01-28T05:21:50;102873.81;;;2.26;86.27
61119;BME280;51448;51.660;5.824;2023-01-28T05:24:25;102858.09;;;2.23;85.56
61119;BME280;51448;51.660;5.824;2023-01-28T05:26:53;102863.13;;;2.18;85.83
61119;BME280;51448;51.660;5.824;2023-01-28T05:29:21;102865.66;;;2.17;86.35
61119;BME280;51448;51.660;5.824;2023-01-28T05:31:48;102862.13;;;2.15;86.28
61119;BME280;51448;51.660;5.824;2023-01-28T05:34:16;102863.91;;;2.16;86.61
61119;BME280;51448;51.660;5.824;2023-01-28T05:36:44;102849.22;;;2.16;86.69
61119;BME280;51448;51.660;5.824;2023-01-28T05:39:32;102848.31;;;2.16;86.07
61119;BME280;51448;51.660;5.824;2023-01-28T05:41:59;102856.94;;;2.15;85.20
61119;BME280;51448;51.660;5.824;2023-01-28T05:44:28;102849.09;;;2.13;84.97
61119;BME280;51448;51.660;5.824;2023-01-28T05:47:34;102861.88;;;2.09;84.55
61119;BME280;51448;51.660;5.824;2023-01-28T05:50:23;102865.25;;;2.06;84.42
61119;BME280;51448;51.660;5.824;2023-01-28T05:53:11;102866.97;;;2.06;84.61
61119;BME280;51448;51.660;5.824;2023-01-28T05:55:41;102860.91;;;2.05;84.78
61119;BME280;51448;51.660;5.824;2023-01-28T05:58:09;102866.09;;;2.05;85.00
61119;BME280;51448;51.660;5.824;2023-01-28T06:00:37;102869.50;;;2.04;85.10
61119;BME280;51448;51.660;5.824;2023-01-28T06:03:05;102870.38;;;2.05;85.18
61119;BME280;51448;51.660;5.824;2023-01-28T06:05:34;102873.81;;;2.04;85.16
61119;BME280;51448;51.660;5.824;2023-01-28T06:08:03;102877.22;;;2.03;85.07
61119;BME280;51448;51.660;5.824;2023-01-28T06:10:31;102875.47;;;2.01;85.05
61119;BME280;51448;51.660;5.824;2023-01-28T06:12:59;102877.09;;;1.99;84.47
61119;BME280;51448;51.660;5.824;2023-01-28T06:15:49;102879.53;;;1.95;83.63
61119;BME280;51448;51.660;5.824;2023-01-28T06:18:46;102872.44;;;1.91;83.67
61119;BME280;51448;51.660;5.824;2023-01-28T06:21:14;102874.13;;;1.90;83.50
61119;BME280;51448;51.660;5.824;2023-01-28T06:23:41;102874.97;;;1.89;83.74
61119;BME280;51448;51.660;5.824;2023-01-28T06:26:09;102872.31;;;1.88;83.67
61119;BME280;51448;51.660;5.824;2023-01-28T06:28:40;102880.09;;;1.88;83.23
61119;BME280;51448;51.660;5.824;2023-01-28T06:31:07;102882.56;;;1.85;83.34
61119;BME280;51448;51.660;5.824;2023-01-28T06:33:35;102879.84;;;1.81;82.62
61119;BME280;51448;51.660;5.824;2023-01-28T06:36:03;102880.66;;;1.80;82.36
61119;BME280;51448;51.660;5.824;2023-01-28T06:38:33;102881.41;;;1.78;82.65
61119;BME280;51448;51.660;5.824;2023-01-28T06:41:01;102881.31;;;1.75;83.10
61119;BME280;51448;51.660;5.824;2023-01-28T06:43:28;102882.09;;;1.74;83.19
61119;BME280;51448;51.660;5.824;2023-01-28T06:45:58;102884.69;;;1.74;83.57
61119;BME280;51448;51.660;5.824;2023-01-28T06:48:27;102877.75;;;1.73;82.92
61119;BME280;51448;51.660;5.824;2023-01-28T06:50:55;102883.75;;;1.72;82.92
61119;BME280;51448;51.660;5.824;2023-01-28T06:53:22;102891.53;;;1.72;82.84
61119;BME280;51448;51.660;5.824;2023-01-28T06:55:50;102891.44;;;1.69;83.24
61119;BME280;51448;51.660;5.824;2023-01-28T06:58:17;102883.56;;;1.67;82.75
61119;BME280;51448;51.660;5.824;2023-01-28T07:00:45;102891.16;;;1.63;82.46
61119;BME280;51448;51.660;5.824;2023-01-28T07:03:13;102890.91;;;1.56;82.03
61119;BME280;51448;51.660;5.824;2023-01-28T07:05:40;102895.00;;;1.51;82.71
61119;BME280;51448;51.660;5.824;2023-01-28T07:08:08;102893.94;;;1.46;82.85
61119;BME280;51448;51.660;5.824;2023-01-28T07:10:35;102905.06;;;1.44;82.90
61119;BME280;51448;51.660;5.824;2023-01-28T07:13:03;102895.44;;;1.41;83.12
61119;BME280;51448;51.660;5.824;2023-01-28T07:15:30;102904.06;;;1.40;83.29
61119;BME280;51448;51.660;5.824;2023-01-28T07:17:58;102909.25;;;1.40;83.39
61119;BME280;51448;51.660;5.824;2023-01-28T07:20:26;102908.41;;;1.41;83.10
61119;BME280;51448;51.660;5.824;2023-01-28T07:22:53;102909.34;;;1.43;83.49
61119;BME280;51448;51.660;5.824;2023-01-28T07:25:21;102909.34;;;1.43;83.26
61119;BME280;51448;51.660;5.824;2023-01-28T07:27:50;102920.63;;;1.44;82.84
61119;BME280;51448;51.660;5.824;2023-01-28T07:30:20;102924.91;;;1.43;83.04
61119;BME280;51448;51.660;5.824;2023-01-28T07:32:52;102931.00;;;1.44;83.25
61119;BME280;51448;51.660;5.824;2023-01-28T07:35:21;102924.91;;;1.43;82.91
61119;BME280;51448;51.660;5.824;2023-01-28T07:37:53;102933.59;;;1.44;82.59
61119;BME280;51448;51.660;5.824;2023-01-28T07:40:23;102939.53;;;1.41;83.08
61119;BME280;51448;51.660;5.824;2023-01-28T07:42:52;102933.53;;;1.42;83.15
61119;BME280;51448;51.660;5.824;2023-01-28T07:45:23;102936.19;;;1.44;83.51
61119;BME280;51448;51.660;5.824;2023-01-28T07:48:03;102939.78;;;1.47;83.47
61119;BME280;51448;51.660;5.824;2023-01-28T07:50:35;102942.44;;;1.49;83.84
61119;BME280;51448;51.660;5.824;2023-01-28T07:53:05;102937.19;;;1.47;83.42
61119;BME280;51448;51.660;5.824;2023-01-28T07:55:34;102936.38;;;1.48;83.29
61119;BME280;51448;51.660;5.824;2023-01-28T07:58:06;102945.91;;;1.49;83.49
61119;BME280;51448;51.660;5.824;2023-01-28T08:00:35;102952.97;;;1.52;83.35
61119;BME280;51448;51.660;5.824;2023-01-28T08:03:06;102943.41;;;1.51;82.79
61119;BME280;51448;51.660;5.824;2023-01-28T08:05:49;102951.09;;;1.49;82.52
61119;BME280;51448;51.660;5.824;2023-01-28T08:08:19;102957.94;;;1.47;82.43
61119;BME280;51448;51.660;5.824;2023-01-28T08:10:47;102945.81;;;1.46;82.89
61119;BME280;51448;51.660;5.824;2023-01-28T08:13:15;102936.47;;;1.50;82.73
61119;BME280;51448;51.660;5.824;2023-01-28T08:15:45;102946.16;;;1.54;83.00
61119;BME280;51448;51.660;5.824;2023-01-28T08:18:15;102950.56;;;1.56;82.75
61119;BME280;51448;51.660;5.824;2023-01-28T08:20:43;102960.09;;;1.57;82.69
61119;BME280;51448;51.660;5.824;2023-01-28T08:23:17;102966.25;;;1.59;82.90
61119;BME280;51448;51.660;5.824;2023-01-28T08:25:46;102969.69;;;1.58;83.27
61119;BME280;51448;51.660;5.824;2023-01-28T08:28:15;102981.97;;;1.63;83.41
61119;BME280;51448;51.660;5.824;2023-01-28T08:30:44;102973.34;;;1.64;83.30
61119;BME280;51448;51.660;5.824;2023-01-28T08:33:13;102984.66;;;1.66;83.35
61119;BME280;51448;51.660;5.824;2023-01-28T08:35:42;102988.09;;;1.65;83.35
61119;BME280;51448;51.660;5.824;2023-01-28T08:38:13;102984.66;;;1.66;83.17
61119;BME280;51448;51.660;5.824;2023-01-28T08:40:44;102991.66;;;1.67;83.41
61119;BME280;51448;51.660;5.824;2023-01-28T08:43:12;102994.31;;;1.68;83.29
61119;BME280;51448;51.660;5.824;2023-01-28T08:45:39;102994.44;;;1.71;83.22
61119;BME280;51448;51.660;5.824;2023-01-28T08:48:11;102986.72;;;1.73;82.69
61119;BME280;51448;51.660;5.824;2023-01-28T08:50:42;103001.41;;;1.72;83.32
61119;BME280;51448;51.660;5.824;2023-01-28T08:53:13;102997.28;;;1.77;83.45
61119;BME280;51448;51.660;5.824;2023-01-28T08:55:45;102988.69;;;1.78;82.97
61119;BME280;51448;51.660;5.824;2023-01-28T08:58:16;102993.94;;;1.80;83.13
61119;BME280;51448;51.660;5.824;2023-01-28T09:00:44;103002.66;;;1.82;83.44
61119;BME280;51448;51.660;5.824;2023-01-28T09:03:12;103004.47;;;1.83;83.07
61119;BME280;51448;51.660;5.824;2023-01-28T09:05:40;103014.84;;;1.83;83.07
61119;BME280;51448;51.660;5.824;2023-01-28T09:08:12;103011.41;;;1.84;82.55
61119;BME280;51448;51.660;5.824;2023-01-28T09:10:41;103005.41;;;1.85;82.64
61119;BME280;51448;51.660;5.824;2023-01-28T09:13:14;103011.56;;;1.87;82.90
61119;BME280;51448;51.660;5.824;2023-01-28T09:15:42;103027.13;;;1.87;82.29
61119;BME280;51448;51.660;5.824;2023-01-28T09:18:10;103017.63;;;1.88;82.59
61119;BME280;51448;51.660;5.824;2023-01-28T09:20:38;103014.25;;;1.90;82.70
61119;BME280;51448;51.660;5.824;2023-01-28T09:23:06;103028.06;;;1.89;82.18
61119;BME280;51448;51.660;5.824;2023-01-28T09:25:34;103024.44;;;1.86;81.99
61119;BME280;51448;51.660;5.824;2023-01-28T09:28:03;103027.81;;;1.83;82.22
61119;BME280;51448;51.660;5.824;2023-01-28T09:30:31;103013.13;;;1.84;82.36
61119;BME280;51448;51.660;5.824;2023-01-28T09:33:01;103017.44;;;1.83;82.72
61119;BME280;51448;51.660;5.824;2023-01-28T09:35:29;103028.75;;;1.85;83.12
61119;BME280;51448;51.660;5.824;2023-01-28T09:37:57;103029.78;;;1.89;82.22
61119;BME280;51448;51.660;5.824;2023-01-28T09:40:41;103032.31;;;1.87;82.00
61119;BME280;51448;51.660;5.824;2023-01-28T09:43:52;103038.47;;;1.89;82.90
61119;BME280;51448;51.660;5.824;2023-01-28T09:46:29;103038.53;;;1.91;83.32
61119;BME280;51448;51.660;5.824;2023-01-28T09:49:25;103035.25;;;1.95;83.12
61119;BME280;51448;51.660;5.824;2023-01-28T09:52:12;103038.78;;;1.97;83.47
61119;BME280;51448;51.660;5.824;2023-01-28T09:55:01;103047.53;;;1.99;83.03
61119;BME280;51448;51.660;5.824;2023-01-28T09:57:44;103043.22;;;1.99;83.18
61119;BME280;51448;51.660;5.824;2023-01-28T10:00:20;103042.44;;;2.02;83.09
61119;BME280;51448;51.660;5.824;2023-01-28T10:03:32;103041.56;;;2.01;82.95
61119;BME280;51448;51.660;5.824;2023-01-28T10:17:44;103059.41;;;1.94;82.73
61119;BME280;51448;51.660;5.824;2023-01-28T10:20:29;103055.25;;;1.97;82.30
61119;BME280;51448;51.660;5.824;2023-01-28T10:23:07;103056.03;;;1.96;82.97
61119;BME280;51448;51.660;5.824;2023-01-28T10:25:43;103063.84;;;1.96;82.76
61119;BME280;51448;51.660;5.824;2023-01-28T10:28:19;103072.47;;;1.95;82.71
61119;BME280;51448;51.660;5.824;2023-01-28T10:30:51;103067.13;;;1.92;82.53
61119;BME280;51448;51.660;5.824;2023-01-28T10:33:37;103063.66;;;1.92;82.72
61119;BME280;51448;51.660;5.824;2023-01-28T10:36:07;103064.47;;;1.91;82.67
61119;BME280;51448;51.660;5.824;2023-01-28T10:38:36;103051.50;;;1.91;81.96
61119;BME280;51448;51.660;5.824;2023-01-28T10:41:04;103061.81;;;1.89;81.79
61119;BME280;51448;51.660;5.824;2023-01-28T10:43:38;103060.09;;;1.90;81.08
61119;BME280;51448;51.660;5.824;2023-01-28T10:46:14;103053.19;;;1.90;81.36
61119;BME280;51448;51.660;5.824;2023-01-28T10:53:07;103049.59;;;1.87;81.53
61119;BME280;51448;51.660;5.824;2023-01-28T10:55:53;103055.78;;;1.90;81.56
61119;BME280;51448;51.660;5.824;2023-01-28T10:58:26;103048.00;;;1.90;81.18
61119;BME280;51448;51.660;5.824;2023-01-28T11:00:59;103042.69;;;1.87;81.52
61119;BME280;51448;51.660;5.824;2023-01-28T11:03:29;103046.16;;;1.88;82.08
61119;BME280;51448;51.660;5.824;2023-01-28T11:05:57;103056.63;;;1.89;82.24
61119;BME280;51448;51.660;5.824;2023-01-28T11:08:27;103053.34;;;1.93;82.03
61119;BME280;51448;51.660;5.824;2023-01-28T11:10:56;103048.84;;;1.89;81.44
61119;BME280;51448;51.660;5.824;2023-01-28T11:13:29;103029.03;;;1.91;81.92
61119;BME280;51448;51.660;5.824;2023-01-28T11:16:02;103030.94;;;1.95;81.66
61119;BME280;51448;51.660;5.824;2023-01-28T11:18:59;103024.34;;;2.04;81.86
61119;BME280;51448;51.660;5.824;2023-01-28T11:21:31;103021.13;;;2.09;81.97
61119;BME280;51448;51.660;5.824;2023-01-28T11:24:13;103014.47;;;2.16;81.49
61119;BME280;51448;51.660;5.824;2023-01-28T11:26:48;103019.78;;;2.19;81.42
61119;BME280;51448;51.660;5.824;2023-01-28T11:29:32;103007.91;;;2.24;81.19
61119;BME280;51448;51.660;5.824;2023-01-28T11:32:15;103009.09;;;2.32;81.30
61119;BME280;51448;51.660;5.824;2023-01-28T11:34:50;102997.16;;;2.37;81.13
61119;BME280;51448;51.660;5.824;2023-01-28T11:37:21;102989.63;;;2.44;81.40
61119;BME280;51448;51.660;5.824;2023-01-28T11:40:14;102997.66;;;2.50;80.77
61119;BME280;51448;51.660;5.824;2023-01-28T11:42:53;102988.03;;;2.47;80.29
61119;BME280;51448;51.660;5.824;2023-01-28T11:45:43;103000.16;;;2.47;80.23
61119;BME280;51448;51.660;5.824;2023-01-28T11:51:50;102978.75;;;2.52;81.15
61119;BME280;51448;51.660;5.824;2023-01-28T11:54:38;102971.28;;;2.61;80.91
61119;BME280;51448;51.660;5.824;2023-01-28T11:57:42;102953.41;;;2.69;80.82
61119;BME280;51448;51.660;5.824;2023-01-28T12:00:27;102943.34;;;2.78;80.82
61119;BME280;51448;51.660;5.824;2023-01-28T12:06:38;102908.34;;;2.93;80.81
61119;BME280;51448;51.660;5.824;2023-01-28T12:18:22;102911.81;;;3.16;80.68
61119;BME280;51448;51.660;5.824;2023-01-28T12:23:54;102908.13;;;3.35;79.80
61119;BME280;51448;51.660;5.824;2023-01-28T12:27:25;102924.75;;;3.38;79.30
61119;BME280;51448;51.660;5.824;2023-01-28T12:30:17;102925.50;;;3.36;78.17
61119;BME280;51448;51.660;5.824;2023-01-28T12:42:12;102940.50;;;3.43;78.00
61119;BME280;51448;51.660;5.824;2023-01-28T12:44:51;102937.91;;;3.43;77.16
61119;BME280;51448;51.660;5.824;2023-01-28T12:47:38;102940.38;;;3.40;77.85
61119;BME280;51448;51.660;5.824;2023-01-28T12:50:19;102951.84;;;3.45;78.08
61119;BME280;51448;51.660;5.824;2023-01-28T12:52:57;102945.84;;;3.48;78.05
61119;BME280;51448;51.660;5.824;2023-01-28T12:58:53;102945.00;;;3.47;78.34
61119;BME280;51448;51.660;5.824;2023-01-28T13:01:36;102937.25;;;3.49;77.92
61119;BME280;51448;51.660;5.824;2023-01-28T13:07:24;102943.41;;;3.52;77.86
61119;BME280;51448;51.660;5.824;2023-01-28T13:09:57;102944.34;;;3.54;78.30
61119;BME280;51448;51.660;5.824;2023-01-28T13:12:31;102941.97;;;3.60;78.54
61119;BME280;51448;51.660;5.824;2023-01-28T13:15:00;102938.63;;;3.65;78.28
61119;BME280;51448;51.660;5.824;2023-01-28T13:17:30;102945.63;;;3.66;77.67
61119;BME280;51448;51.660;5.824;2023-01-28T13:19:58;102936.00;;;3.63;78.43
61119;BME280;51448;51.660;5.824;2023-01-28T13:22:30;102930.22;;;3.72;78.25
61119;BME280;51448;51.660;5.824;2023-01-28T13:25:21;102932.28;;;3.82;77.90
61119;BME280;51448;51.660;5.824;2023-01-28T13:28:05;102933.38;;;3.89;77.82
61119;BME280;51448;51.660;5.824;2023-01-28T13:30:50;102935.09;;;3.88;77.22
61119;BME280;51448;51.660;5.824;2023-01-28T13:33:29;102937.06;;;3.95;77.72
61119;BME280;51448;51.660;5.824;2023-01-28T13:36:07;102919.03;;;4.01;77.21
61119;BME280;51448;51.660;5.824;2023-01-28T13:38:44;102916.53;;;4.05;77.22
61119;BME280;51448;51.660;5.824;2023-01-28T13:41:12;102916.53;;;4.05;77.56
61119;BME280;51448;51.660;5.824;2023-01-28T13:43:41;102906.25;;;4.09;77.10
61119;BME280;51448;51.660;5.824;2023-01-28T13:46:25;102897.63;;;4.10;76.38
61119;BME280;51448;51.660;5.824;2023-01-28T13:48:57;102896.78;;;4.11;76.51
61119;BME280;51448;51.660;5.824;2023-01-28T13:51:33;102891.63;;;4.13;77.00
61119;BME280;51448;51.660;5.824;2023-01-28T13:54:16;102878.69;;;4.16;76.52
61119;BME280;51448;51.660;5.824;2023-01-28T13:57:55;102861.38;;;4.18;76.45
61119;BME280;51448;51.660;5.824;2023-01-28T14:00:22;102841.47;;;4.20;76.28
61119;BME280;51448;51.660;5.824;2023-01-28T14:18:49;102869.84;;;4.11;75.91
61119;BME280;51448;51.660;5.824;2023-01-28T14:21:19;102882.88;;;4.11;75.90
61119;BME280;51448;51.660;5.824;2023-01-28T14:23:50;102881.28;;;4.16;75.87
61119;BME280;51448;51.660;5.824;2023-01-28T14:31:52;102884.28;;;4.28;76.52
61119;BME280;51448;51.660;5.824;2023-01-28T14:34:35;102881.78;;;4.31;76.89
61119;BME280;51448;51.660;5.824;2023-01-28T14:37:06;102887.81;;;4.30;76.33
61119;BME280;51448;51.660;5.824;2023-01-28T14:39:43;102895.63;;;4.30;77.10
61119;BME280;51448;51.660;5.824;2023-01-28T14:42:23;102893.94;;;4.32;76.16
61119;BME280;51448;51.660;5.824;2023-01-28T14:45:00;102889.47;;;4.27;76.68
61119;BME280;51448;51.660;5.824;2023-01-28T14:51:35;102897.22;;;4.25;77.37
61119;BME280;51448;51.660;5.824;2023-01-28T15:00:19;102917.56;;;4.10;77.37
61119;BME280;51448;51.660;5.824;2023-01-28T15:02:47;102910.41;;;4.02;77.50
61119;BME280;51448;51.660;5.824;2023-01-28T15:05:25;102908.53;;;3.98;77.98
61119;BME280;51448;51.660;5.824;2023-01-28T15:07:54;102897.25;;;3.98;77.71
61119;BME280;51448;51.660;5.824;2023-01-28T15:10:29;102899.09;;;4.02;77.62
61119;BME280;51448;51.660;5.824;2023-01-28T15:13:12;102900.06;;;4.06;77.89
61119;BME280;51448;51.660;5.824;2023-01-28T15:15:52;102897.44;;;4.04;78.28
61119;BME280;51448;51.660;5.824;2023-01-28T15:18:41;102901.75;;;4.03;77.31
61119;BME280;51448;51.660;5.824;2023-01-28T15:21:11;102900.78;;;4.00;77.43
61119;BME280;51448;51.660;5.824;2023-01-28T15:23:40;102899.00;;;3.99;77.63
61119;BME280;51448;51.660;5.824;2023-01-28T15:26:14;102905.78;;;3.94;77.21
61119;BME280;51448;51.660;5.824;2023-01-28T15:28:44;102911.66;;;3.88;77.30
61119;BME280;51448;51.660;5.824;2023-01-28T15:31:34;102927.16;;;3.85;77.32